sensor_id;sensor_type;location;lat;lon;timestamp;P1;durP1;ratioP1;P2;durP2;ratioP2
9541;SDS011;4809;48.224;8.572;2023-08-07T00:00:21;2.33;;;1.80;;
9541;SDS011;4809;48.224;8.572;2023-08-07T00:02:47;2.80;;;1.83;;
9541;SDS011;4809;48.224;8.572;2023-08-07T00:05:13;3.20;;;2.00;;
9541;SDS011;4809;48.224;8.572;2023-08-07T00:07:39;3.10;;;1.92;;
9541;SDS011;4809;48.224;8.572;2023-08-07T00:10:04;3.53;;;1.73;;
9541;SDS011;4809;48.224;8.572;2023-08-07T00:12:31;3.00;;;2.10;;
9541;SDS011;4809;48.224;8.572;2023-08-07T00:14:57;4.80;;;2.10;;
9541;SDS011;4809;48.224;8.572;2023-08-07T00:17:22;2.72;;;2.10;;
9541;SDS011;4809;48.224;8.572;2023-08-07T00:19:48;2.95;;;2.00;;
9541;SDS011;4809;48.224;8.572;2023-08-07T00:22:13;2.35;;;1.75;;
9541;SDS011;4809;48.224;8.572;2023-08-07T00:24:39;2.58;;;2.00;;
9541;SDS011;4809;48.224;8.572;2023-08-07T00:27:05;2.53;;;2.13;;
9541;SDS011;4809;48.224;8.572;2023-08-07T00:29:31;2.30;;;2.10;;
9541;SDS011;4809;48.224;8.572;2023-08-07T00:31:57;4.85;;;2.00;;
9541;SDS011;4809;48.224;8.572;2023-08-07T00:34:23;3.08;;;2.03;;
9541;SDS011;4809;48.224;8.572;2023-08-07T00:36:49;2.20;;;2.00;;
9541;SDS011;4809;48.224;8.572;2023-08-07T00:39:15;3.25;;;2.15;;
9541;SDS011;4809;48.224;8.572;2023-08-07T00:41:40;5.05;;;2.05;;
9541;SDS011;4809;48.224;8.572;2023-08-07T00:44:06;2.35;;;2.10;;
9541;SDS011;4809;48.224;8.572;2023-08-07T00:46:32;2.20;;;1.77;;
9541;SDS011;4809;48.224;8.572;2023-08-07T00:48:58;2.78;;;2.22;;
9541;SDS011;4809;48.224;8.572;2023-08-07T00:51:24;2.78;;;2.15;;
9541;SDS011;4809;48.224;8.572;2023-08-07T00:53:49;2.42;;;1.98;;
9541;SDS011;4809;48.224;8.572;2023-08-07T00:56:16;3.20;;;1.95;;
9541;SDS011;4809;48.224;8.572;2023-08-07T00:58:42;4.75;;;2.25;;
9541;SDS011;4809;48.224;8.572;2023-08-07T01:01:09;3.08;;;2.17;;
9541;SDS011;4809;48.224;8.572;2023-08-07T01:03:34;4.18;;;2.00;;
9541;SDS011;4809;48.224;8.572;2023-08-07T01:06:01;3.13;;;2.00;;
9541;SDS011;4809;48.224;8.572;2023-08-07T01:08:26;2.40;;;1.90;;
9541;SDS011;4809;48.224;8.572;2023-08-07T01:13:49;5.35;;;2.30;;
9541;SDS011;4809;48.224;8.572;2023-08-07T01:19:02;2.38;;;1.98;;
9541;SDS011;4809;48.224;8.572;2023-08-07T01:21:29;2.30;;;2.00;;
9541;SDS011;4809;48.224;8.572;2023-08-07T01:23:57;3.42;;;2.08;;
9541;SDS011;4809;48.224;8.572;2023-08-07T01:26:22;3.72;;;2.38;;
9541;SDS011;4809;48.224;8.572;2023-08-07T01:31:40;2.30;;;1.98;;
9541;SDS011;4809;48.224;8.572;2023-08-07T01:34:09;2.65;;;1.95;;
9541;SDS011;4809;48.224;8.572;2023-08-07T01:36:39;3.10;;;2.28;;
9541;SDS011;4809;48.224;8.572;2023-08-07T01:39:05;2.63;;;2.00;;
9541;SDS011;4809;48.224;8.572;2023-08-07T01:41:32;2.15;;;1.80;;
9541;SDS011;4809;48.224;8.572;2023-08-07T01:43:58;2.90;;;2.35;;
9541;SDS011;4809;48.224;8.572;2023-08-07T01:46:24;3.20;;;2.10;;
9541;SDS011;4809;48.224;8.572;2023-08-07T01:48:50;3.08;;;2.30;;
9541;SDS011;4809;48.224;8.572;2023-08-07T01:51:15;3.33;;;1.98;;
9541;SDS011;4809;48.224;8.572;2023-08-07T01:53:41;3.03;;;2.28;;
9541;SDS011;4809;48.224;8.572;2023-08-07T01:56:07;3.85;;;2.00;;
9541;SDS011;4809;48.224;8.572;2023-08-07T01:58:32;2.50;;;2.10;;
9541;SDS011;4809;48.224;8.572;2023-08-07T02:00:58;2.30;;;1.92;;
9541;SDS011;4809;48.224;8.572;2023-08-07T02:03:24;3.75;;;2.05;;
9541;SDS011;4809;48.224;8.572;2023-08-07T02:05:49;2.42;;;2.05;;
9541;SDS011;4809;48.224;8.572;2023-08-07T02:08:15;3.65;;;1.95;;
9541;SDS011;4809;48.224;8.572;2023-08-07T02:10:40;4.72;;;1.90;;
9541;SDS011;4809;48.224;8.572;2023-08-07T02:13:06;4.50;;;1.92;;
9541;SDS011;4809;48.224;8.572;2023-08-07T02:15:32;2.55;;;2.05;;
9541;SDS011;4809;48.224;8.572;2023-08-07T02:17:57;3.53;;;1.73;;
9541;SDS011;4809;48.224;8.572;2023-08-07T02:20:23;2.20;;;1.90;;
9541;SDS011;4809;48.224;8.572;2023-08-07T02:22:49;2.60;;;1.73;;
9541;SDS011;4809;48.224;8.572;2023-08-07T02:25:14;1.90;;;1.67;;
9541;SDS011;4809;48.224;8.572;2023-08-07T02:27:40;2.97;;;2.03;;
9541;SDS011;4809;48.224;8.572;2023-08-07T02:30:06;3.25;;;2.15;;
9541;SDS011;4809;48.224;8.572;2023-08-07T02:32:32;4.43;;;2.05;;
9541;SDS011;4809;48.224;8.572;2023-08-07T02:34:57;3.15;;;2.10;;
9541;SDS011;4809;48.224;8.572;2023-08-07T02:37:23;2.17;;;1.98;;
9541;SDS011;4809;48.224;8.572;2023-08-07T02:39:49;2.72;;;1.95;;
9541;SDS011;4809;48.224;8.572;2023-08-07T02:42:15;3.58;;;2.13;;
9541;SDS011;4809;48.224;8.572;2023-08-07T02:44:40;3.33;;;2.30;;
9541;SDS011;4809;48.224;8.572;2023-08-07T02:47:06;2.20;;;1.80;;
9541;SDS011;4809;48.224;8.572;2023-08-07T02:49:31;2.65;;;1.80;;
9541;SDS011;4809;48.224;8.572;2023-08-07T02:51:57;2.90;;;2.10;;
9541;SDS011;4809;48.224;8.572;2023-08-07T02:54:23;3.22;;;2.00;;
9541;SDS011;4809;48.224;8.572;2023-08-07T02:56:49;3.30;;;2.10;;
9541;SDS011;4809;48.224;8.572;2023-08-07T02:59:17;3.10;;;1.90;;
9541;SDS011;4809;48.224;8.572;2023-08-07T03:01:43;3.17;;;2.10;;
9541;SDS011;4809;48.224;8.572;2023-08-07T03:04:09;2.72;;;1.90;;
9541;SDS011;4809;48.224;8.572;2023-08-07T03:06:35;3.17;;;2.00;;
9541;SDS011;4809;48.224;8.572;2023-08-07T03:09:00;3.80;;;2.22;;
9541;SDS011;4809;48.224;8.572;2023-08-07T03:11:26;3.17;;;1.90;;
9541;SDS011;4809;48.224;8.572;2023-08-07T03:13:52;3.05;;;2.17;;
9541;SDS011;4809;48.224;8.572;2023-08-07T03:16:18;3.00;;;2.20;;
9541;SDS011;4809;48.224;8.572;2023-08-07T03:18:43;3.65;;;2.10;;
9541;SDS011;4809;48.224;8.572;2023-08-07T03:21:09;4.72;;;2.20;;
9541;SDS011;4809;48.224;8.572;2023-08-07T03:23:34;3.58;;;2.22;;
9541;SDS011;4809;48.224;8.572;2023-08-07T03:26:04;3.33;;;2.13;;
9541;SDS011;4809;48.224;8.572;2023-08-07T03:28:32;2.45;;;2.00;;
9541;SDS011;4809;48.224;8.572;2023-08-07T03:30:59;3.80;;;2.25;;
9541;SDS011;4809;48.224;8.572;2023-08-07T03:33:24;2.67;;;2.30;;
9541;SDS011;4809;48.224;8.572;2023-08-07T03:35:50;3.35;;;2.10;;
9541;SDS011;4809;48.224;8.572;2023-08-07T03:38:16;3.38;;;2.42;;
9541;SDS011;4809;48.224;8.572;2023-08-07T03:40:42;4.68;;;2.30;;
9541;SDS011;4809;48.224;8.572;2023-08-07T03:43:08;2.40;;;2.00;;
9541;SDS011;4809;48.224;8.572;2023-08-07T03:45:33;3.42;;;2.40;;
9541;SDS011;4809;48.224;8.572;2023-08-07T03:47:59;2.72;;;2.08;;
9541;SDS011;4809;48.224;8.572;2023-08-07T03:50:24;2.25;;;2.03;;
9541;SDS011;4809;48.224;8.572;2023-08-07T03:52:50;2.60;;;2.08;;
9541;SDS011;4809;48.224;8.572;2023-08-07T03:55:16;3.10;;;2.20;;
9541;SDS011;4809;48.224;8.572;2023-08-07T03:57:41;2.65;;;2.20;;
9541;SDS011;4809;48.224;8.572;2023-08-07T04:00:07;3.17;;;2.17;;
9541;SDS011;4809;48.224;8.572;2023-08-07T04:02:33;3.40;;;2.50;;
9541;SDS011;4809;48.224;8.572;2023-08-07T04:04:59;3.72;;;2.40;;
9541;SDS011;4809;48.224;8.572;2023-08-07T04:07:25;2.30;;;2.10;;
9541;SDS011;4809;48.224;8.572;2023-08-07T04:09:50;3.20;;;2.30;;
9541;SDS011;4809;48.224;8.572;2023-08-07T04:12:16;2.55;;;2.28;;
9541;SDS011;4809;48.224;8.572;2023-08-07T04:14:45;3.25;;;2.50;;
9541;SDS011;4809;48.224;8.572;2023-08-07T04:17:10;4.25;;;2.25;;
9541;SDS011;4809;48.224;8.572;2023-08-07T04:19:36;4.15;;;2.40;;
9541;SDS011;4809;48.224;8.572;2023-08-07T04:22:02;2.55;;;2.10;;
9541;SDS011;4809;48.224;8.572;2023-08-07T04:24:28;2.78;;;2.03;;
9541;SDS011;4809;48.224;8.572;2023-08-07T04:26:53;2.67;;;2.08;;
9541;SDS011;4809;48.224;8.572;2023-08-07T04:29:19;3.58;;;2.15;;
9541;SDS011;4809;48.224;8.572;2023-08-07T04:31:44;5.28;;;2.30;;
9541;SDS011;4809;48.224;8.572;2023-08-07T04:34:10;2.60;;;2.05;;
9541;SDS011;4809;48.224;8.572;2023-08-07T04:36:37;3.47;;;2.50;;
9541;SDS011;4809;48.224;8.572;2023-08-07T04:39:03;4.18;;;2.28;;
9541;SDS011;4809;48.224;8.572;2023-08-07T04:41:32;4.60;;;2.50;;
9541;SDS011;4809;48.224;8.572;2023-08-07T04:43:57;2.92;;;2.20;;
9541;SDS011;4809;48.224;8.572;2023-08-07T04:46:23;2.70;;;2.20;;
9541;SDS011;4809;48.224;8.572;2023-08-07T04:48:49;2.65;;;2.28;;
9541;SDS011;4809;48.224;8.572;2023-08-07T04:51:14;2.80;;;2.00;;
9541;SDS011;4809;48.224;8.572;2023-08-07T04:53:40;2.83;;;2.03;;
9541;SDS011;4809;48.224;8.572;2023-08-07T04:56:06;4.65;;;2.10;;
9541;SDS011;4809;48.224;8.572;2023-08-07T04:58:32;2.10;;;1.85;;
9541;SDS011;4809;48.224;8.572;2023-08-07T05:00:57;5.13;;;2.10;;
9541;SDS011;4809;48.224;8.572;2023-08-07T05:03:24;3.50;;;2.10;;
9541;SDS011;4809;48.224;8.572;2023-08-07T05:05:57;2.95;;;1.92;;
9541;SDS011;4809;48.224;8.572;2023-08-07T05:08:23;2.25;;;2.05;;
9541;SDS011;4809;48.224;8.572;2023-08-07T05:10:49;2.42;;;2.05;;
9541;SDS011;4809;48.224;8.572;2023-08-07T05:13:14;2.35;;;2.08;;
9541;SDS011;4809;48.224;8.572;2023-08-07T05:15:40;2.78;;;2.00;;
9541;SDS011;4809;48.224;8.572;2023-08-07T05:18:06;2.15;;;1.98;;
9541;SDS011;4809;48.224;8.572;2023-08-07T05:20:31;2.38;;;2.08;;
9541;SDS011;4809;48.224;8.572;2023-08-07T05:22:57;4.22;;;2.20;;
9541;SDS011;4809;48.224;8.572;2023-08-07T05:25:23;2.55;;;2.30;;
9541;SDS011;4809;48.224;8.572;2023-08-07T05:27:48;4.13;;;2.20;;
9541;SDS011;4809;48.224;8.572;2023-08-07T05:30:14;4.80;;;2.10;;
9541;SDS011;4809;48.224;8.572;2023-08-07T05:32:40;2.38;;;2.00;;
9541;SDS011;4809;48.224;8.572;2023-08-07T05:35:06;3.58;;;2.10;;
9541;SDS011;4809;48.224;8.572;2023-08-07T05:37:33;2.90;;;2.25;;
9541;SDS011;4809;48.224;8.572;2023-08-07T05:39:59;3.75;;;2.28;;
9541;SDS011;4809;48.224;8.572;2023-08-07T05:42:25;2.88;;;2.40;;
9541;SDS011;4809;48.224;8.572;2023-08-07T05:44:50;3.47;;;1.90;;
9541;SDS011;4809;48.224;8.572;2023-08-07T05:47:16;3.55;;;2.22;;
9541;SDS011;4809;48.224;8.572;2023-08-07T05:49:42;2.35;;;2.00;;
9541;SDS011;4809;48.224;8.572;2023-08-07T05:52:07;3.28;;;2.10;;
9541;SDS011;4809;48.224;8.572;2023-08-07T05:54:33;2.90;;;2.00;;
9541;SDS011;4809;48.224;8.572;2023-08-07T05:56:59;3.33;;;2.00;;
9541;SDS011;4809;48.224;8.572;2023-08-07T05:59:25;2.75;;;2.00;;
9541;SDS011;4809;48.224;8.572;2023-08-07T06:01:51;2.17;;;1.80;;
9541;SDS011;4809;48.224;8.572;2023-08-07T06:04:17;2.10;;;1.85;;
9541;SDS011;4809;48.224;8.572;2023-08-07T06:06:43;2.70;;;2.05;;
9541;SDS011;4809;48.224;8.572;2023-08-07T06:09:09;2.60;;;2.05;;
9541;SDS011;4809;48.224;8.572;2023-08-07T06:11:34;2.90;;;2.25;;
9541;SDS011;4809;48.224;8.572;2023-08-07T06:14:00;4.75;;;2.00;;
9541;SDS011;4809;48.224;8.572;2023-08-07T06:16:26;4.15;;;2.00;;
9541;SDS011;4809;48.224;8.572;2023-08-07T06:18:52;3.72;;;2.10;;
9541;SDS011;4809;48.224;8.572;2023-08-07T06:21:18;3.53;;;2.03;;
9541;SDS011;4809;48.224;8.572;2023-08-07T06:23:45;3.65;;;2.33;;
9541;SDS011;4809;48.224;8.572;2023-08-07T06:26:12;2.47;;;1.98;;
9541;SDS011;4809;48.224;8.572;2023-08-07T06:28:37;2.15;;;1.88;;
9541;SDS011;4809;48.224;8.572;2023-08-07T06:31:07;2.00;;;1.80;;
9541;SDS011;4809;48.224;8.572;2023-08-07T06:33:33;3.08;;;1.90;;
9541;SDS011;4809;48.224;8.572;2023-08-07T06:36:00;3.05;;;2.10;;
9541;SDS011;4809;48.224;8.572;2023-08-07T06:38:26;3.13;;;2.00;;
9541;SDS011;4809;48.224;8.572;2023-08-07T06:40:51;2.65;;;2.10;;
9541;SDS011;4809;48.224;8.572;2023-08-07T06:43:17;3.00;;;2.10;;
9541;SDS011;4809;48.224;8.572;2023-08-07T06:45:43;2.63;;;2.05;;
9541;SDS011;4809;48.224;8.572;2023-08-07T06:48:11;2.75;;;2.00;;
9541;SDS011;4809;48.224;8.572;2023-08-07T06:50:37;2.40;;;2.20;;
9541;SDS011;4809;48.224;8.572;2023-08-07T06:53:06;3.40;;;1.85;;
9541;SDS011;4809;48.224;8.572;2023-08-07T06:55:31;3.13;;;1.98;;
9541;SDS011;4809;48.224;8.572;2023-08-07T06:57:58;2.63;;;2.28;;
9541;SDS011;4809;48.224;8.572;2023-08-07T07:00:24;2.75;;;2.28;;
9541;SDS011;4809;48.224;8.572;2023-08-07T07:02:50;3.03;;;2.17;;
9541;SDS011;4809;48.224;8.572;2023-08-07T07:05:16;2.88;;;2.13;;
9541;SDS011;4809;48.224;8.572;2023-08-07T07:07:41;2.40;;;2.20;;
9541;SDS011;4809;48.224;8.572;2023-08-07T07:10:07;3.80;;;2.15;;
9541;SDS011;4809;48.224;8.572;2023-08-07T07:12:33;2.80;;;2.05;;
9541;SDS011;4809;48.224;8.572;2023-08-07T07:14:59;3.60;;;2.40;;
9541;SDS011;4809;48.224;8.572;2023-08-07T07:17:24;2.30;;;2.10;;
9541;SDS011;4809;48.224;8.572;2023-08-07T07:19:50;4.43;;;2.13;;
9541;SDS011;4809;48.224;8.572;2023-08-07T07:22:16;2.67;;;2.10;;
9541;SDS011;4809;48.224;8.572;2023-08-07T07:24:41;2.00;;;1.90;;
9541;SDS011;4809;48.224;8.572;2023-08-07T07:27:07;4.47;;;2.25;;
9541;SDS011;4809;48.224;8.572;2023-08-07T07:29:32;3.22;;;2.00;;
9541;SDS011;4809;48.224;8.572;2023-08-07T07:31:58;2.70;;;2.17;;
9541;SDS011;4809;48.224;8.572;2023-08-07T07:34:24;2.67;;;2.15;;
9541;SDS011;4809;48.224;8.572;2023-08-07T07:36:50;4.50;;;2.60;;
9541;SDS011;4809;48.224;8.572;2023-08-07T07:39:16;3.28;;;2.22;;
9541;SDS011;4809;48.224;8.572;2023-08-07T07:41:42;3.30;;;2.13;;
9541;SDS011;4809;48.224;8.572;2023-08-07T07:44:07;3.90;;;2.30;;
9541;SDS011;4809;48.224;8.572;2023-08-07T07:46:33;6.47;;;2.50;;
9541;SDS011;4809;48.224;8.572;2023-08-07T07:48:59;3.97;;;2.20;;
9541;SDS011;4809;48.224;8.572;2023-08-07T07:51:26;2.30;;;2.03;;
9541;SDS011;4809;48.224;8.572;2023-08-07T07:53:54;2.38;;;2.00;;
9541;SDS011;4809;48.224;8.572;2023-08-07T07:56:20;2.38;;;2.10;;
9541;SDS011;4809;48.224;8.572;2023-08-07T07:58:46;3.22;;;2.30;;
9541;SDS011;4809;48.224;8.572;2023-08-07T08:01:11;4.03;;;2.33;;
9541;SDS011;4809;48.224;8.572;2023-08-07T08:03:37;3.75;;;2.22;;
9541;SDS011;4809;48.224;8.572;2023-08-07T08:06:03;3.42;;;2.35;;
9541;SDS011;4809;48.224;8.572;2023-08-07T08:08:29;2.67;;;2.42;;
9541;SDS011;4809;48.224;8.572;2023-08-07T08:10:55;2.42;;;2.20;;
9541;SDS011;4809;48.224;8.572;2023-08-07T08:13:20;3.85;;;2.50;;
9541;SDS011;4809;48.224;8.572;2023-08-07T08:15:46;3.10;;;2.30;;
9541;SDS011;4809;48.224;8.572;2023-08-07T08:18:11;3.33;;;2.80;;
9541;SDS011;4809;48.224;8.572;2023-08-07T08:20:37;5.07;;;2.33;;
9541;SDS011;4809;48.224;8.572;2023-08-07T08:23:03;3.60;;;2.63;;
9541;SDS011;4809;48.224;8.572;2023-08-07T08:25:30;4.53;;;2.78;;
9541;SDS011;4809;48.224;8.572;2023-08-07T08:27:56;3.05;;;2.60;;
9541;SDS011;4809;48.224;8.572;2023-08-07T08:30:22;2.95;;;2.42;;
9541;SDS011;4809;48.224;8.572;2023-08-07T08:32:47;5.68;;;3.40;;
9541;SDS011;4809;48.224;8.572;2023-08-07T08:35:13;3.40;;;2.25;;
9541;SDS011;4809;48.224;8.572;2023-08-07T08:37:39;3.28;;;2.22;;
9541;SDS011;4809;48.224;8.572;2023-08-07T08:40:05;3.40;;;2.10;;
9541;SDS011;4809;48.224;8.572;2023-08-07T08:42:33;2.42;;;2.20;;
9541;SDS011;4809;48.224;8.572;2023-08-07T08:44:59;3.65;;;2.40;;
9541;SDS011;4809;48.224;8.572;2023-08-07T08:47:27;3.38;;;2.40;;
9541;SDS011;4809;48.224;8.572;2023-08-07T08:49:59;2.40;;;2.20;;
9541;SDS011;4809;48.224;8.572;2023-08-07T08:52:28;2.88;;;2.20;;
9541;SDS011;4809;48.224;8.572;2023-08-07T08:54:56;2.50;;;2.30;;
9541;SDS011;4809;48.224;8.572;2023-08-07T08:57:22;3.58;;;2.20;;
9541;SDS011;4809;48.224;8.572;2023-08-07T08:59:50;3.28;;;2.40;;
9541;SDS011;4809;48.224;8.572;2023-08-07T09:02:17;3.10;;;2.22;;
9541;SDS011;4809;48.224;8.572;2023-08-07T09:04:43;2.22;;;2.00;;
9541;SDS011;4809;48.224;8.572;2023-08-07T09:07:09;2.28;;;2.00;;
9541;SDS011;4809;48.224;8.572;2023-08-07T09:09:38;2.35;;;2.15;;
9541;SDS011;4809;48.224;8.572;2023-08-07T09:12:06;2.25;;;2.05;;
9541;SDS011;4809;48.224;8.572;2023-08-07T09:14:38;4.93;;;3.50;;
9541;SDS011;4809;48.224;8.572;2023-08-07T09:17:06;3.22;;;2.25;;
9541;SDS011;4809;48.224;8.572;2023-08-07T09:19:32;2.40;;;2.20;;
9541;SDS011;4809;48.224;8.572;2023-08-07T09:21:58;2.40;;;2.20;;
9541;SDS011;4809;48.224;8.572;2023-08-07T09:24:24;2.67;;;2.13;;
9541;SDS011;4809;48.224;8.572;2023-08-07T09:26:53;2.40;;;2.20;;
9541;SDS011;4809;48.224;8.572;2023-08-07T09:29:20;2.45;;;2.13;;
9541;SDS011;4809;48.224;8.572;2023-08-07T09:31:47;2.33;;;2.13;;
9541;SDS011;4809;48.224;8.572;2023-08-07T09:34:12;2.40;;;1.92;;
9541;SDS011;4809;48.224;8.572;2023-08-07T09:36:41;2.85;;;2.13;;
9541;SDS011;4809;48.224;8.572;2023-08-07T09:39:07;2.97;;;2.22;;
9541;SDS011;4809;48.224;8.572;2023-08-07T09:41:33;3.28;;;2.40;;
9541;SDS011;4809;48.224;8.572;2023-08-07T09:44:00;2.75;;;2.30;;
9541;SDS011;4809;48.224;8.572;2023-08-07T09:46:42;3.45;;;2.08;;
9541;SDS011;4809;48.224;8.572;2023-08-07T09:49:09;2.92;;;2.22;;
9541;SDS011;4809;48.224;8.572;2023-08-07T09:52:08;2.25;;;1.88;;
9541;SDS011;4809;48.224;8.572;2023-08-07T09:54:30;3.70;;;2.10;;
9541;SDS011;4809;48.224;8.572;2023-08-07T09:56:56;2.47;;;2.10;;
9541;SDS011;4809;48.224;8.572;2023-08-07T09:59:22;2.50;;;2.30;;
9541;SDS011;4809;48.224;8.572;2023-08-07T10:01:47;2.38;;;2.20;;
9541;SDS011;4809;48.224;8.572;2023-08-07T10:04:14;3.30;;;2.10;;
9541;SDS011;4809;48.224;8.572;2023-08-07T10:06:41;2.15;;;1.90;;
9541;SDS011;4809;48.224;8.572;2023-08-07T10:09:08;2.78;;;2.15;;
9541;SDS011;4809;48.224;8.572;2023-08-07T10:11:34;2.63;;;1.90;;
9541;SDS011;4809;48.224;8.572;2023-08-07T10:14:00;2.00;;;1.80;;
9541;SDS011;4809;48.224;8.572;2023-08-07T10:16:26;2.13;;;1.92;;
9541;SDS011;4809;48.224;8.572;2023-08-07T10:18:55;3.13;;;1.90;;
9541;SDS011;4809;48.224;8.572;2023-08-07T10:21:20;2.97;;;2.38;;
9541;SDS011;4809;48.224;8.572;2023-08-07T10:23:48;3.42;;;1.85;;
9541;SDS011;4809;48.224;8.572;2023-08-07T10:26:18;2.22;;;1.90;;
9541;SDS011;4809;48.224;8.572;2023-08-07T10:28:45;2.13;;;1.92;;
9541;SDS011;4809;48.224;8.572;2023-08-07T10:31:12;2.35;;;1.90;;
9541;SDS011;4809;48.224;8.572;2023-08-07T10:33:40;2.42;;;2.00;;
9541;SDS011;4809;48.224;8.572;2023-08-07T10:36:10;1.80;;;1.70;;
9541;SDS011;4809;48.224;8.572;2023-08-07T10:38:36;2.50;;;1.95;;
9541;SDS011;4809;48.224;8.572;2023-08-07T10:41:05;2.65;;;2.00;;
9541;SDS011;4809;48.224;8.572;2023-08-07T10:43:42;2.33;;;1.70;;
9541;SDS011;4809;48.224;8.572;2023-08-07T10:46:10;6.20;;;2.05;;
9541;SDS011;4809;48.224;8.572;2023-08-07T10:48:38;2.38;;;2.17;;
9541;SDS011;4809;48.224;8.572;2023-08-07T10:51:07;3.55;;;1.85;;
9541;SDS011;4809;48.224;8.572;2023-08-07T10:53:34;2.20;;;2.00;;
9541;SDS011;4809;48.224;8.572;2023-08-07T10:56:09;2.72;;;2.05;;
9541;SDS011;4809;48.224;8.572;2023-08-07T10:58:55;2.72;;;2.30;;
9541;SDS011;4809;48.224;8.572;2023-08-07T11:01:39;3.35;;;1.92;;
9541;SDS011;4809;48.224;8.572;2023-08-07T11:04:07;2.15;;;1.95;;
9541;SDS011;4809;48.224;8.572;2023-08-07T11:06:41;3.03;;;1.90;;
9541;SDS011;4809;48.224;8.572;2023-08-07T11:09:08;2.42;;;1.90;;
9541;SDS011;4809;48.224;8.572;2023-08-07T11:11:44;2.20;;;1.77;;
9541;SDS011;4809;48.224;8.572;2023-08-07T11:14:20;2.00;;;1.90;;
9541;SDS011;4809;48.224;8.572;2023-08-07T11:16:46;2.25;;;1.88;;
9541;SDS011;4809;48.224;8.572;2023-08-07T11:19:13;1.88;;;1.77;;
9541;SDS011;4809;48.224;8.572;2023-08-07T11:21:41;2.63;;;1.80;;
9541;SDS011;4809;48.224;8.572;2023-08-07T11:24:07;3.35;;;2.10;;
9541;SDS011;4809;48.224;8.572;2023-08-07T11:26:33;2.13;;;1.77;;
9541;SDS011;4809;48.224;8.572;2023-08-07T11:28:58;2.80;;;1.90;;
9541;SDS011;4809;48.224;8.572;2023-08-07T11:31:24;1.80;;;1.70;;
9541;SDS011;4809;48.224;8.572;2023-08-07T11:33:51;1.85;;;1.75;;
9541;SDS011;4809;48.224;8.572;2023-08-07T11:36:17;2.17;;;1.90;;
9541;SDS011;4809;48.224;8.572;2023-08-07T11:38:43;1.90;;;1.80;;
9541;SDS011;4809;48.224;8.572;2023-08-07T11:41:10;2.78;;;1.98;;
9541;SDS011;4809;48.224;8.572;2023-08-07T11:43:37;3.22;;;2.00;;
9541;SDS011;4809;48.224;8.572;2023-08-07T11:46:04;2.22;;;1.90;;
9541;SDS011;4809;48.224;8.572;2023-08-07T11:48:32;1.60;;;1.50;;
9541;SDS011;4809;48.224;8.572;2023-08-07T11:50:59;2.38;;;1.70;;
9541;SDS011;4809;48.224;8.572;2023-08-07T11:53:28;2.72;;;2.00;;
9541;SDS011;4809;48.224;8.572;2023-08-07T11:55:55;2.00;;;1.80;;
9541;SDS011;4809;48.224;8.572;2023-08-07T11:58:26;2.10;;;1.73;;
9541;SDS011;4809;48.224;8.572;2023-08-07T12:00:58;2.63;;;1.75;;
9541;SDS011;4809;48.224;8.572;2023-08-07T12:03:24;1.80;;;1.70;;
9541;SDS011;4809;48.224;8.572;2023-08-07T12:05:57;1.70;;;1.58;;
9541;SDS011;4809;48.224;8.572;2023-08-07T12:08:24;2.05;;;1.65;;
9541;SDS011;4809;48.224;8.572;2023-08-07T12:10:56;2.63;;;2.00;;
9541;SDS011;4809;48.224;8.572;2023-08-07T12:13:25;1.65;;;1.55;;
9541;SDS011;4809;48.224;8.572;2023-08-07T12:15:54;1.73;;;1.60;;
9541;SDS011;4809;48.224;8.572;2023-08-07T12:18:21;2.00;;;1.60;;
9541;SDS011;4809;48.224;8.572;2023-08-07T12:20:51;2.95;;;1.35;;
9541;SDS011;4809;48.224;8.572;2023-08-07T12:23:27;2.65;;;1.52;;
9541;SDS011;4809;48.224;8.572;2023-08-07T12:25:53;1.70;;;1.50;;
9541;SDS011;4809;48.224;8.572;2023-08-07T12:28:19;1.65;;;1.55;;
9541;SDS011;4809;48.224;8.572;2023-08-07T12:30:45;1.52;;;1.42;;
9541;SDS011;4809;48.224;8.572;2023-08-07T12:33:12;1.60;;;1.50;;
9541;SDS011;4809;48.224;8.572;2023-08-07T12:35:39;1.83;;;1.73;;
9541;SDS011;4809;48.224;8.572;2023-08-07T12:38:05;1.65;;;1.55;;
9541;SDS011;4809;48.224;8.572;2023-08-07T12:40:31;2.17;;;1.55;;
9541;SDS011;4809;48.224;8.572;2023-08-07T12:42:57;1.63;;;1.52;;
9541;SDS011;4809;48.224;8.572;2023-08-07T12:45:24;1.67;;;1.58;;
9541;SDS011;4809;48.224;8.572;2023-08-07T12:47:49;1.80;;;1.70;;
9541;SDS011;4809;48.224;8.572;2023-08-07T12:50:15;1.60;;;1.50;;
9541;SDS011;4809;48.224;8.572;2023-08-07T12:52:41;2.35;;;1.50;;
9541;SDS011;4809;48.224;8.572;2023-08-07T12:55:07;2.20;;;1.52;;
9541;SDS011;4809;48.224;8.572;2023-08-07T12:57:33;1.70;;;1.60;;
9541;SDS011;4809;48.224;8.572;2023-08-07T12:59:58;1.70;;;1.60;;
9541;SDS011;4809;48.224;8.572;2023-08-07T13:02:24;2.63;;;1.60;;
9541;SDS011;4809;48.224;8.572;2023-08-07T13:04:50;1.90;;;1.50;;
9541;SDS011;4809;48.224;8.572;2023-08-07T13:07:16;3.17;;;1.60;;
9541;SDS011;4809;48.224;8.572;2023-08-07T13:09:48;3.72;;;1.42;;
9541;SDS011;4809;48.224;8.572;2023-08-07T13:12:14;1.70;;;1.60;;
9541;SDS011;4809;48.224;8.572;2023-08-07T13:14:40;2.65;;;1.48;;
9541;SDS011;4809;48.224;8.572;2023-08-07T13:17:05;1.63;;;1.52;;
9541;SDS011;4809;48.224;8.572;2023-08-07T13:19:31;1.92;;;1.25;;
9541;SDS011;4809;48.224;8.572;2023-08-07T13:21:56;2.58;;;1.60;;
9541;SDS011;4809;48.224;8.572;2023-08-07T13:24:22;2.63;;;1.48;;
9541;SDS011;4809;48.224;8.572;2023-08-07T13:26:51;1.40;;;1.30;;
9541;SDS011;4809;48.224;8.572;2023-08-07T13:29:16;2.13;;;1.50;;
9541;SDS011;4809;48.224;8.572;2023-08-07T13:31:42;1.77;;;1.55;;
9541;SDS011;4809;48.224;8.572;2023-08-07T13:34:14;1.92;;;1.83;;
9541;SDS011;4809;48.224;8.572;2023-08-07T13:36:39;1.75;;;1.65;;
9541;SDS011;4809;48.224;8.572;2023-08-07T13:39:05;1.50;;;1.40;;
9541;SDS011;4809;48.224;8.572;2023-08-07T13:41:31;1.70;;;1.60;;
9541;SDS011;4809;48.224;8.572;2023-08-07T13:43:57;1.45;;;1.35;;
9541;SDS011;4809;48.224;8.572;2023-08-07T13:46:25;1.63;;;1.52;;
9541;SDS011;4809;48.224;8.572;2023-08-07T13:48:51;2.55;;;1.40;;
9541;SDS011;4809;48.224;8.572;2023-08-07T13:51:17;1.60;;;1.50;;
9541;SDS011;4809;48.224;8.572;2023-08-07T13:53:43;1.60;;;1.42;;
9541;SDS011;4809;48.224;8.572;2023-08-07T13:56:09;2.03;;;1.55;;
9541;SDS011;4809;48.224;8.572;2023-08-07T13:58:37;3.47;;;1.70;;
9541;SDS011;4809;48.224;8.572;2023-08-07T14:01:03;2.05;;;1.50;;
9541;SDS011;4809;48.224;8.572;2023-08-07T14:03:30;2.42;;;1.50;;
9541;SDS011;4809;48.224;8.572;2023-08-07T14:05:56;1.83;;;1.50;;
9541;SDS011;4809;48.224;8.572;2023-08-07T14:08:21;1.60;;;1.40;;
9541;SDS011;4809;48.224;8.572;2023-08-07T14:10:47;3.22;;;1.42;;
9541;SDS011;4809;48.224;8.572;2023-08-07T14:13:13;2.10;;;1.42;;
9541;SDS011;4809;48.224;8.572;2023-08-07T14:15:39;2.00;;;1.40;;
9541;SDS011;4809;48.224;8.572;2023-08-07T14:18:05;1.70;;;1.60;;
9541;SDS011;4809;48.224;8.572;2023-08-07T14:20:30;2.20;;;1.33;;
9541;SDS011;4809;48.224;8.572;2023-08-07T14:22:56;1.73;;;1.63;;
9541;SDS011;4809;48.224;8.572;2023-08-07T14:25:22;1.70;;;1.60;;
9541;SDS011;4809;48.224;8.572;2023-08-07T14:27:48;1.63;;;1.50;;
9541;SDS011;4809;48.224;8.572;2023-08-07T14:30:14;1.92;;;1.60;;
9541;SDS011;4809;48.224;8.572;2023-08-07T14:32:40;1.50;;;1.40;;
9541;SDS011;4809;48.224;8.572;2023-08-07T14:35:07;1.67;;;1.33;;
9541;SDS011;4809;48.224;8.572;2023-08-07T14:37:33;1.80;;;1.70;;
9541;SDS011;4809;48.224;8.572;2023-08-07T14:39:59;1.25;;;1.23;;
9541;SDS011;4809;48.224;8.572;2023-08-07T14:42:26;1.85;;;1.38;;
9541;SDS011;4809;48.224;8.572;2023-08-07T14:44:52;3.53;;;1.80;;
9541;SDS011;4809;48.224;8.572;2023-08-07T14:47:17;2.05;;;1.55;;
9541;SDS011;4809;48.224;8.572;2023-08-07T14:49:43;2.75;;;1.70;;
9541;SDS011;4809;48.224;8.572;2023-08-07T14:52:09;2.58;;;1.42;;
9541;SDS011;4809;48.224;8.572;2023-08-07T14:54:34;1.60;;;1.50;;
9541;SDS011;4809;48.224;8.572;2023-08-07T14:57:00;2.35;;;1.38;;
9541;SDS011;4809;48.224;8.572;2023-08-07T14:59:26;2.28;;;1.40;;
9541;SDS011;4809;48.224;8.572;2023-08-07T15:01:51;1.40;;;1.30;;
9541;SDS011;4809;48.224;8.572;2023-08-07T15:04:17;1.60;;;1.50;;
9541;SDS011;4809;48.224;8.572;2023-08-07T15:06:43;1.58;;;1.30;;
9541;SDS011;4809;48.224;8.572;2023-08-07T15:09:13;2.20;;;1.67;;
9541;SDS011;4809;48.224;8.572;2023-08-07T15:11:39;1.50;;;1.40;;
9541;SDS011;4809;48.224;8.572;2023-08-07T15:14:04;1.33;;;1.23;;
9541;SDS011;4809;48.224;8.572;2023-08-07T15:16:30;2.00;;;1.60;;
9541;SDS011;4809;48.224;8.572;2023-08-07T15:18:56;2.00;;;1.40;;